createdAt,value
2023-06-07T00:01:08.662Z,1008.74
2023-06-07T00:06:12.836Z,1008.76
2023-06-07T00:11:16.936Z,1008.75
2023-06-07T00:16:21.132Z,1008.81
2023-06-07T00:21:25.293Z,1008.74
2023-06-07T00:26:29.507Z,1008.85
2023-06-07T00:31:33.772Z,1008.88
2023-06-07T00:36:37.798Z,1008.84
2023-06-07T00:41:41.945Z,1008.81
2023-06-07T00:46:46.136Z,1008.81
2023-06-07T00:51:50.265Z,1008.86
2023-06-07T00:56:54.427Z,1008.75
2023-06-07T01:01:58.625Z,1008.88
2023-06-07T01:07:02.749Z,1008.80
2023-06-07T01:12:06.925Z,1008.87
2023-06-07T01:17:11.053Z,1008.85
2023-06-07T01:22:15.234Z,1008.83
2023-06-07T01:27:19.390Z,1008.82
2023-06-07T01:32:23.560Z,1008.76
2023-06-07T01:37:27.721Z,1008.76
2023-06-07T01:42:31.886Z,1008.70
2023-06-07T01:47:36.058Z,1008.65
2023-06-07T01:52:40.199Z,1008.61
2023-06-07T01:57:44.316Z,1008.67
2023-06-07T02:02:48.504Z,1008.64
2023-06-07T02:07:52.645Z,1008.55
2023-06-07T02:12:56.814Z,1008.50
2023-06-07T02:18:01.033Z,1008.48
2023-06-07T02:23:05.155Z,1008.51
2023-06-07T02:28:09.333Z,1008.44
2023-06-07T02:33:13.517Z,1008.47
2023-06-07T02:38:17.664Z,1008.44
2023-06-07T02:43:21.758Z,1008.51
2023-06-07T02:48:25.921Z,1008.47
2023-06-07T02:53:30.095Z,1008.48
2023-06-07T02:58:34.260Z,1008.41
2023-06-07T03:03:38.570Z,1008.44
2023-06-07T03:08:42.590Z,1008.54
2023-06-07T03:13:44.855Z,1008.45
2023-06-07T03:18:49.000Z,1008.42
2023-06-07T03:23:53.192Z,1008.46
2023-06-07T03:28:57.353Z,1008.51
2023-06-07T03:34:01.520Z,1008.49
2023-06-07T03:39:05.642Z,1008.46
2023-06-07T03:44:09.818Z,1008.46
2023-06-07T03:49:14.089Z,1008.52
2023-06-07T03:54:18.122Z,1008.52
2023-06-07T03:59:22.321Z,1008.57
2023-06-07T04:04:26.540Z,1008.55
2023-06-07T04:09:30.613Z,1008.62
2023-06-07T04:14:34.773Z,1008.65
2023-06-07T04:19:45.374Z,1008.62
2023-06-07T04:24:43.090Z,1008.54
2023-06-07T04:29:47.240Z,1008.61
2023-06-07T04:34:51.636Z,1008.61
2023-06-07T04:39:55.696Z,1008.71
2023-06-07T04:44:59.746Z,1008.65
2023-06-07T04:50:04.311Z,1008.70
2023-06-07T04:55:08.067Z,1008.67
2023-06-07T05:00:12.226Z,1008.81
2023-06-07T05:05:16.406Z,1008.78
2023-06-07T05:10:20.675Z,1008.77
2023-06-07T05:15:24.704Z,1008.75
2023-06-07T05:20:28.859Z,1008.70
2023-06-07T05:25:33.006Z,1008.75
2023-06-07T05:30:37.159Z,1008.83
2023-06-07T05:35:41.344Z,1008.87
2023-06-07T05:40:45.512Z,1008.79
2023-06-07T05:45:49.666Z,1008.78
2023-06-07T05:50:53.927Z,1008.86
2023-06-07T05:55:57.993Z,1009.01
2023-06-07T06:01:02.134Z,1009.04
2023-06-07T06:06:06.289Z,1009.08
2023-06-07T06:11:10.465Z,1009.02
2023-06-07T06:16:14.619Z,1009.04
2023-06-07T06:21:18.774Z,1009.07
2023-06-07T06:26:22.908Z,1009.17
2023-06-07T06:31:27.152Z,1009.04
2023-06-07T06:36:31.278Z,1009.13
2023-06-07T06:41:35.429Z,1009.27
2023-06-07T06:46:39.600Z,1009.30
2023-06-07T06:51:46.001Z,1009.25
2023-06-07T06:56:47.919Z,1009.41
2023-06-07T07:01:52.089Z,1009.39
2023-06-07T07:06:56.229Z,1009.43
2023-06-07T07:12:00.367Z,1009.47
2023-06-07T07:17:04.619Z,1009.64
2023-06-07T07:22:08.733Z,1009.52
2023-06-07T07:27:12.869Z,1009.61
2023-06-07T07:32:17.033Z,1009.63
2023-06-07T07:37:21.207Z,1009.54
2023-06-07T07:42:25.386Z,1009.60
2023-06-07T07:47:29.601Z,1009.51
2023-06-07T07:52:33.654Z,1009.55
2023-06-07T07:57:37.837Z,1009.46
2023-06-07T08:02:42.028Z,1009.57
2023-06-07T08:07:46.160Z,1009.59
2023-06-07T08:12:50.324Z,1009.61
2023-06-07T08:17:54.488Z,1009.55
2023-06-07T08:22:58.628Z,1009.62
2023-06-07T08:28:02.784Z,1009.68
2023-06-07T08:33:06.991Z,1009.60
2023-06-07T08:38:11.103Z,1009.72
2023-06-07T08:43:13.362Z,1009.59
2023-06-07T08:48:17.553Z,1009.66
2023-06-07T08:53:21.706Z,1009.67
2023-06-07T08:58:25.933Z,1009.69
2023-06-07T09:03:30.114Z,1009.77
2023-06-07T09:08:34.181Z,1009.83
2023-06-07T09:13:38.305Z,1009.88
2023-06-07T09:18:42.530Z,1009.90
2023-06-07T09:23:46.682Z,1009.91
2023-06-07T09:28:50.872Z,1009.80
2023-06-07T09:33:54.962Z,1009.87
2023-06-07T09:38:59.115Z,1009.87
2023-06-07T09:44:03.313Z,1009.77
2023-06-07T09:49:07.519Z,1009.80
2023-06-07T09:54:11.643Z,1009.88
2023-06-07T09:59:15.797Z,1009.78
2023-06-07T10:04:20.007Z,1009.84
2023-06-07T10:09:24.098Z,1009.86
2023-06-07T10:14:28.265Z,1009.80
2023-06-07T10:19:32.388Z,1009.71
2023-06-07T10:24:36.711Z,1009.60
2023-06-07T10:29:40.713Z,1009.57
2023-06-07T10:34:44.890Z,1009.55
2023-06-07T10:39:49.066Z,1009.61
2023-06-07T10:44:53.251Z,1009.57
2023-06-07T10:49:57.409Z,1009.43
2023-06-07T10:55:01.528Z,1009.55
2023-06-07T11:00:05.946Z,1009.60
2023-06-07T11:05:10.003Z,1009.54
2023-06-07T11:10:14.054Z,1009.47
2023-06-07T11:15:18.242Z,1009.48
2023-06-07T11:20:22.340Z,1009.45
2023-06-07T11:25:26.492Z,1009.35
2023-06-07T11:30:30.671Z,1009.36
2023-06-07T11:35:34.811Z,1009.28
2023-06-07T11:40:39.005Z,1009.37
2023-06-07T11:45:43.151Z,1009.30
2023-06-07T11:50:47.274Z,1009.27
2023-06-07T11:55:51.422Z,1009.23
2023-06-07T12:00:55.589Z,1009.15
2023-06-07T12:05:59.780Z,1009.15
2023-06-07T12:11:03.954Z,1009.16
2023-06-07T12:16:08.131Z,1008.97
2023-06-07T12:21:12.199Z,1008.96
2023-06-07T12:26:16.413Z,1008.97
2023-06-07T12:31:20.657Z,1008.93
2023-06-07T12:36:24.768Z,1008.87
2023-06-07T12:41:28.893Z,1008.88
2023-06-07T12:46:33.038Z,1008.91
2023-06-07T12:51:37.222Z,1008.94
2023-06-07T12:56:41.367Z,1008.95
2023-06-07T13:01:45.497Z,1008.87
2023-06-07T13:06:49.700Z,1008.92
2023-06-07T13:11:53.817Z,1008.90
2023-06-07T13:16:58.090Z,1008.77
2023-06-07T13:22:02.130Z,1008.77
2023-06-07T13:27:06.309Z,1008.77
2023-06-07T13:32:10.547Z,1008.72
2023-06-07T13:37:14.634Z,1008.62
2023-06-07T13:42:18.833Z,1008.46
2023-06-07T13:47:23.012Z,1008.47
2023-06-07T13:52:27.101Z,1008.50
2023-06-07T13:57:31.264Z,1008.36
2023-06-07T14:02:35.697Z,1008.37
2023-06-07T14:07:39.587Z,1008.24
2023-06-07T14:12:41.847Z,1008.15
2023-06-07T14:17:46.047Z,1008.16
2023-06-07T14:22:50.173Z,1008.05
2023-06-07T14:27:54.337Z,1008.08
2023-06-07T14:32:58.496Z,1007.96
2023-06-07T14:38:02.676Z,1008.00
2023-06-07T14:43:04.972Z,1007.84
2023-06-07T14:48:09.076Z,1007.84
2023-06-07T14:53:13.243Z,1007.79
2023-06-07T14:58:17.406Z,1007.85
2023-06-07T15:03:21.633Z,1007.74
2023-06-07T15:08:25.723Z,1007.66
2023-06-07T15:13:29.930Z,1007.59
2023-06-07T15:18:34.032Z,1007.64
2023-06-07T15:23:38.233Z,1007.61
2023-06-07T15:28:42.340Z,1007.72
2023-06-07T15:33:46.477Z,1007.80
2023-06-07T15:38:50.693Z,1007.81
2023-06-07T15:43:54.844Z,1007.75
2023-06-07T15:48:58.950Z,1007.72
2023-06-07T15:54:03.163Z,1007.56
2023-06-07T16:04:11.681Z,1007.50
2023-06-07T16:09:15.609Z,1007.40
2023-06-07T16:14:19.776Z,1007.42
2023-06-07T16:19:23.937Z,1007.27
2023-06-07T16:24:28.099Z,1007.26
2023-06-07T16:29:32.241Z,1007.25
2023-06-07T16:34:36.421Z,1007.24
2023-06-07T16:39:40.605Z,1007.16
2023-06-07T16:44:44.750Z,1007.21
2023-06-07T16:49:48.876Z,1007.32
2023-06-07T16:59:57.231Z,1007.34
2023-06-07T17:05:01.376Z,1007.41
2023-06-07T17:10:06.058Z,1007.32
2023-06-07T17:15:09.699Z,1007.26
2023-06-07T17:20:13.846Z,1007.23
2023-06-07T17:25:18.004Z,1007.22
2023-06-07T17:30:22.192Z,1007.24
2023-06-07T17:35:26.309Z,1007.28
2023-06-07T17:40:30.454Z,1007.25
2023-06-07T17:45:34.767Z,1007.30
2023-06-07T17:50:46.798Z,1007.35
2023-06-07T17:55:42.970Z,1007.29
2023-06-07T18:00:47.125Z,1007.31
2023-06-07T18:05:51.259Z,1007.35
2023-06-07T18:10:55.491Z,1007.30
2023-06-07T18:15:59.619Z,1007.24
2023-06-07T18:21:03.825Z,1007.33
2023-06-07T18:26:07.927Z,1007.29
2023-06-07T18:31:12.072Z,1007.33
2023-06-07T18:36:16.247Z,1007.34
2023-06-07T18:41:20.456Z,1007.24
2023-06-07T18:51:28.720Z,1007.35
2023-06-07T18:56:32.870Z,1007.18
2023-06-07T19:01:50.816Z,1007.20
2023-06-07T19:06:41.263Z,1007.15
2023-06-07T19:11:45.391Z,1007.18
2023-06-07T19:16:49.576Z,1007.27
2023-06-07T19:21:53.713Z,1007.22
2023-06-07T19:26:57.851Z,1007.15
2023-06-07T19:32:01.983Z,1007.23
2023-06-07T19:37:06.178Z,1007.21
2023-06-07T19:42:10.337Z,1007.25
2023-06-07T19:47:14.478Z,1007.25
2023-06-07T19:52:18.647Z,1007.31
2023-06-07T19:57:22.772Z,1007.31
2023-06-07T20:02:27.170Z,1007.31
2023-06-07T20:07:31.130Z,1007.34
2023-06-07T20:12:33.384Z,1007.40
2023-06-07T20:17:37.567Z,1007.35
2023-06-07T20:22:41.699Z,1007.41
2023-06-07T20:27:45.871Z,1007.36
2023-06-07T20:32:50.137Z,1007.33
2023-06-07T20:37:54.166Z,1007.39
2023-06-07T20:42:58.340Z,1007.41
2023-06-07T20:48:02.492Z,1007.45
2023-06-07T20:53:06.647Z,1007.47
2023-06-07T20:58:10.806Z,1007.49
2023-06-07T21:03:15.082Z,1007.53
2023-06-07T21:08:19.168Z,1007.57
2023-06-07T21:13:23.285Z,1007.52
2023-06-07T21:18:27.437Z,1007.53
2023-06-07T21:23:31.645Z,1007.47
2023-06-07T21:28:35.747Z,1007.48
2023-06-07T21:33:39.958Z,1007.48
2023-06-07T21:38:44.075Z,1007.45
2023-06-07T21:43:48.242Z,1007.49
2023-06-07T21:48:52.413Z,1007.50
2023-06-07T21:53:56.561Z,1007.49
2023-06-07T21:59:00.715Z,1007.52
2023-06-07T22:04:04.940Z,1007.49
2023-06-07T22:09:09.041Z,1007.50
2023-06-07T22:14:13.212Z,1007.48
2023-06-07T22:19:17.367Z,1007.45
2023-06-07T22:24:21.548Z,1007.45
2023-06-07T22:29:25.688Z,1007.50
2023-06-07T22:34:29.831Z,1007.57
2023-06-07T22:39:34.023Z,1007.64
2023-06-07T22:44:38.206Z,1007.46
2023-06-07T22:49:42.328Z,1007.54
2023-06-07T22:54:46.552Z,1007.45
2023-06-07T22:59:50.650Z,1007.48
2023-06-07T23:04:54.782Z,1007.45
2023-06-07T23:09:58.941Z,1007.48
2023-06-07T23:15:03.180Z,1007.41
2023-06-07T23:20:07.605Z,1007.38
2023-06-07T23:25:11.432Z,1007.36
2023-06-07T23:30:15.611Z,1007.31
2023-06-07T23:35:19.741Z,1007.44
2023-06-07T23:40:23.916Z,1007.33
2023-06-07T23:45:28.064Z,1007.24
2023-06-07T23:50:32.270Z,1007.26
2023-06-07T23:55:36.431Z,1007.17
